createdAt,value
2023-05-19T00:00:48.514Z,100.00
2023-05-19T00:03:18.350Z,100.00
2023-05-19T00:05:46.798Z,100.00
2023-05-19T00:08:17.596Z,100.00
2023-05-19T00:11:21.105Z,100.00
2023-05-19T00:13:34.249Z,100.00
2023-05-19T00:16:02.691Z,100.00
2023-05-19T00:18:30.685Z,100.00
2023-05-19T00:20:58.695Z,100.00
2023-05-19T00:23:29.923Z,100.00
2023-05-19T00:25:57.309Z,100.00
2023-05-19T00:28:25.058Z,100.00
2023-05-19T00:30:52.935Z,100.00
2023-05-19T00:33:20.130Z,100.00
2023-05-19T00:35:47.670Z,100.00
2023-05-19T00:38:15.162Z,100.00
2023-05-19T00:40:42.818Z,100.00
2023-05-19T00:43:10.572Z,100.00
2023-05-19T00:45:38.024Z,100.00
2023-05-19T00:48:05.089Z,100.00
2023-05-19T00:50:34.402Z,100.00
2023-05-19T00:53:02.250Z,100.00
2023-05-19T00:55:31.529Z,100.00
2023-05-19T00:57:59.446Z,100.00
2023-05-19T01:00:27.558Z,100.00
2023-05-19T01:02:56.886Z,100.00
2023-05-19T01:05:24.765Z,100.00
2023-05-19T01:07:54.245Z,100.00
2023-05-19T01:10:22.134Z,100.00
2023-05-19T01:12:49.952Z,100.00
2023-05-19T01:15:23.524Z,100.00
2023-05-19T01:18:08.094Z,100.00
2023-05-19T01:20:43.348Z,100.00
2023-05-19T01:23:37.066Z,100.00
2023-05-19T01:26:24.071Z,100.00
2023-05-19T01:29:09.462Z,100.00
2023-05-19T01:31:41.046Z,100.00
2023-05-19T01:34:11.399Z,100.00
2023-05-19T01:36:40.523Z,100.00
2023-05-19T01:39:08.332Z,100.00
2023-05-19T01:41:38.709Z,100.00
2023-05-19T01:44:06.307Z,100.00
2023-05-19T01:46:37.270Z,100.00
2023-05-19T01:49:07.652Z,100.00
2023-05-19T01:51:35.171Z,100.00
2023-05-19T01:54:06.033Z,100.00
2023-05-19T01:56:44.331Z,100.00
2023-05-19T01:59:28.162Z,100.00
2023-05-19T02:02:02.072Z,100.00
2023-05-19T02:04:44.641Z,100.00
2023-05-19T02:07:26.252Z,100.00
2023-05-19T02:10:19.389Z,100.00
2023-05-19T02:12:48.451Z,100.00
2023-05-19T02:15:27.705Z,100.00
2023-05-19T02:17:56.578Z,100.00
2023-05-19T02:20:24.694Z,100.00
2023-05-19T02:22:52.111Z,100.00
2023-05-19T02:25:19.494Z,100.00
2023-05-19T02:27:50.236Z,100.00
2023-05-19T02:30:20.661Z,100.00
2023-05-19T02:32:47.780Z,100.00
2023-05-19T02:35:14.768Z,100.00
2023-05-19T02:37:42.127Z,100.00
2023-05-19T02:40:09.438Z,100.00
2023-05-19T02:42:36.353Z,100.00
2023-05-19T02:45:03.284Z,100.00
2023-05-19T02:47:30.107Z,100.00
2023-05-19T02:49:57.008Z,100.00
2023-05-19T02:52:23.735Z,100.00
2023-05-19T02:54:50.788Z,100.00
2023-05-19T02:57:17.573Z,100.00
2023-05-19T02:59:45.016Z,100.00
2023-05-19T03:02:12.038Z,100.00
2023-05-19T03:04:42.312Z,100.00
2023-05-19T03:07:10.576Z,100.00
2023-05-19T03:09:38.160Z,100.00
2023-05-19T03:12:07.704Z,100.00
2023-05-19T03:14:39.103Z,100.00
2023-05-19T03:17:12.666Z,100.00
2023-05-19T03:19:39.669Z,100.00
2023-05-19T03:22:06.673Z,100.00
2023-05-19T03:24:33.767Z,100.00
2023-05-19T03:27:05.490Z,100.00
2023-05-19T03:29:35.867Z,100.00
2023-05-19T03:32:02.984Z,100.00
2023-05-19T03:34:29.838Z,100.00
2023-05-19T03:36:57.285Z,100.00
2023-05-19T03:39:24.456Z,100.00
2023-05-19T03:41:51.462Z,100.00
2023-05-19T03:44:18.312Z,100.00
2023-05-19T03:46:45.234Z,100.00
2023-05-19T03:49:15.511Z,100.00
2023-05-19T03:51:43.277Z,100.00
2023-05-19T03:54:10.374Z,100.00
2023-05-19T03:56:42.308Z,100.00
2023-05-19T03:59:13.460Z,100.00
2023-05-19T04:01:40.417Z,100.00
2023-05-19T04:04:07.927Z,100.00
2023-05-19T04:06:40.986Z,100.00
2023-05-19T04:09:15.062Z,100.00
2023-05-19T04:11:43.075Z,100.00
2023-05-19T04:14:13.173Z,100.00
2023-05-19T04:16:41.933Z,100.00
2023-05-19T04:19:08.878Z,100.00
2023-05-19T04:21:36.178Z,100.00
2023-05-19T04:24:06.798Z,100.00
2023-05-19T04:26:34.111Z,100.00
2023-05-19T04:29:15.508Z,100.00
2023-05-19T04:31:42.997Z,100.00
2023-05-19T04:34:10.682Z,100.00
2023-05-19T04:36:40.044Z,100.00
2023-05-19T04:39:10.030Z,100.00
2023-05-19T04:41:40.655Z,100.00
2023-05-19T04:44:09.824Z,100.00
2023-05-19T04:46:36.880Z,100.00
2023-05-19T04:49:04.014Z,100.00
2023-05-19T04:51:34.844Z,100.00
2023-05-19T04:54:01.760Z,100.00
2023-05-19T04:56:29.506Z,100.00
2023-05-19T04:58:56.385Z,100.00
2023-05-19T05:01:26.638Z,100.00
2023-05-19T05:03:55.650Z,100.00
2023-05-19T05:06:23.110Z,100.00
2023-05-19T05:09:00.175Z,99.83
2023-05-19T05:11:28.053Z,99.80
2023-05-19T05:16:40.257Z,95.71
2023-05-19T05:19:14.385Z,96.92
2023-05-19T05:21:42.735Z,94.50
2023-05-19T05:24:11.214Z,93.21
2023-05-19T05:26:39.241Z,93.10
2023-05-19T05:29:07.009Z,91.00
2023-05-19T05:31:34.055Z,90.93
2023-05-19T05:37:28.123Z,91.36
2023-05-19T05:39:56.238Z,90.33
2023-05-19T05:42:31.431Z,88.85
2023-05-19T05:44:59.385Z,87.42
2023-05-19T05:47:31.469Z,86.87
2023-05-19T05:49:59.552Z,86.46
2023-05-19T05:52:35.421Z,84.67
2023-05-19T05:55:09.279Z,85.13
2023-05-19T06:00:31.580Z,82.78
2023-05-19T06:02:59.597Z,82.43
2023-05-19T06:05:26.949Z,80.49
2023-05-19T06:07:55.420Z,82.07
2023-05-19T06:10:27.653Z,81.38
2023-05-19T06:13:01.009Z,81.09
2023-05-19T06:15:28.556Z,81.29
2023-05-19T06:17:55.676Z,81.61
2023-05-19T06:20:27.671Z,80.36
2023-05-19T06:22:58.312Z,80.12
2023-05-19T06:25:25.932Z,80.90
2023-05-19T06:27:59.130Z,81.01
2023-05-19T06:31:06.968Z,82.31
2023-05-19T06:36:39.311Z,80.79
2023-05-19T06:39:06.996Z,80.87
2023-05-19T06:41:46.738Z,79.64
2023-05-19T06:45:33.606Z,79.60
2023-05-19T06:48:18.325Z,77.77
2023-05-19T06:54:16.609Z,77.08
2023-05-19T06:56:50.484Z,74.22
2023-05-19T06:59:28.476Z,71.87
2023-05-19T07:01:55.285Z,71.21
2023-05-19T07:04:45.141Z,71.60
2023-05-19T07:07:24.519Z,70.77
2023-05-19T07:10:01.121Z,70.19
2023-05-19T07:12:52.206Z,69.83
2023-05-19T07:15:36.130Z,69.84
2023-05-19T07:18:13.924Z,68.94
2023-05-19T07:23:28.320Z,66.41
2023-05-19T07:25:57.376Z,66.57
2023-05-19T07:28:31.041Z,67.20
2023-05-19T07:30:59.048Z,65.08
2023-05-19T07:33:27.148Z,64.80
2023-05-19T07:35:54.329Z,62.98
2023-05-19T07:38:21.883Z,61.74
2023-05-19T07:40:49.047Z,60.82
2023-05-19T07:43:19.220Z,60.40
2023-05-19T07:45:46.993Z,57.39
2023-05-19T07:48:19.305Z,59.03
2023-05-19T07:50:47.139Z,58.55
2023-05-19T07:53:14.880Z,58.53
2023-05-19T07:55:42.062Z,58.60
2023-05-19T07:58:09.587Z,58.15
2023-05-19T08:00:37.046Z,59.32
2023-05-19T08:03:07.809Z,59.50
2023-05-19T08:05:47.622Z,59.62
2023-05-19T08:08:17.101Z,60.58
2023-05-19T08:10:44.378Z,60.33
2023-05-19T08:13:12.083Z,62.83
2023-05-19T08:15:40.282Z,61.88
2023-05-19T08:18:10.255Z,60.97
2023-05-19T08:20:37.970Z,61.04
2023-05-19T08:23:14.722Z,60.20
2023-05-19T08:25:42.091Z,61.50
2023-05-19T08:28:09.037Z,62.61
2023-05-19T08:30:35.967Z,65.26
2023-05-19T08:33:02.945Z,63.46
2023-05-19T08:35:36.601Z,61.17
2023-05-19T08:38:04.070Z,60.04
2023-05-19T08:40:33.762Z,58.34
2023-05-19T08:43:01.564Z,57.74
2023-05-19T08:45:31.741Z,58.74
2023-05-19T08:47:59.254Z,57.85
2023-05-19T08:50:32.515Z,55.61
2023-05-19T08:53:21.023Z,54.40
2023-05-19T08:56:19.825Z,54.98
2023-05-19T08:58:52.040Z,56.64
2023-05-19T09:01:20.673Z,55.42
2023-05-19T09:03:50.426Z,53.65
2023-05-19T09:06:18.202Z,53.19
2023-05-19T09:08:45.383Z,53.78
2023-05-19T09:11:18.134Z,53.03
2023-05-19T09:13:45.693Z,55.19
2023-05-19T09:16:13.739Z,52.22
2023-05-19T09:19:05.054Z,53.78
2023-05-19T09:21:33.494Z,55.74
2023-05-19T09:24:22.111Z,55.38
2023-05-19T09:26:49.304Z,55.30
2023-05-19T09:29:21.554Z,54.83
2023-05-19T09:32:01.141Z,53.95
2023-05-19T09:37:52.436Z,49.66
2023-05-19T09:40:32.742Z,48.85
2023-05-19T09:42:59.895Z,49.77
2023-05-19T09:45:28.573Z,50.89
2023-05-19T09:47:55.677Z,51.10
2023-05-19T09:50:24.020Z,51.41
2023-05-19T09:52:52.212Z,52.80
2023-05-19T09:55:23.425Z,52.64
2023-05-19T09:57:51.591Z,50.18
2023-05-19T10:00:23.695Z,51.06
2023-05-19T10:02:51.730Z,48.53
2023-05-19T10:05:20.949Z,50.22
2023-05-19T10:07:52.656Z,50.76
2023-05-19T10:10:23.366Z,51.95
2023-05-19T10:12:51.134Z,54.12
2023-05-19T10:15:22.919Z,52.04
2023-05-19T10:17:51.031Z,51.71
2023-05-19T10:20:18.415Z,50.39
2023-05-19T10:22:46.572Z,48.82
2023-05-19T10:25:18.748Z,49.90
2023-05-19T10:28:08.645Z,52.29
2023-05-19T10:30:44.835Z,53.51
2023-05-19T10:33:16.910Z,52.66
2023-05-19T10:36:09.146Z,49.28
2023-05-19T10:38:59.326Z,49.04
2023-05-19T10:41:46.960Z,50.01
2023-05-19T10:44:32.181Z,47.67
2023-05-19T10:46:59.410Z,46.10
2023-05-19T10:49:26.504Z,46.37
2023-05-19T10:51:57.065Z,48.96
2023-05-19T10:54:41.144Z,48.64
2023-05-19T10:57:09.322Z,47.60
2023-05-19T10:59:40.117Z,48.88
2023-05-19T11:02:09.664Z,50.07
2023-05-19T11:04:41.520Z,47.80
2023-05-19T11:07:11.486Z,47.92
2023-05-19T11:09:42.533Z,47.48
2023-05-19T11:12:11.161Z,47.03
2023-05-19T11:14:40.617Z,47.19
2023-05-19T11:17:18.678Z,49.13
2023-05-19T11:19:59.123Z,51.03
2023-05-19T11:22:28.297Z,50.17
2023-05-19T11:24:58.582Z,50.28
2023-05-19T11:27:31.741Z,52.06
2023-05-19T11:30:09.985Z,49.80
2023-05-19T11:32:42.323Z,47.69
2023-05-19T11:35:13.496Z,47.02
2023-05-19T11:37:41.994Z,46.07
2023-05-19T11:40:09.969Z,47.28
2023-05-19T11:42:42.742Z,50.14
2023-05-19T11:45:10.922Z,50.30
2023-05-19T11:47:56.471Z,48.00
2023-05-19T11:50:26.833Z,49.73
2023-05-19T11:52:54.864Z,47.32
2023-05-19T11:55:23.625Z,47.49
2023-05-19T11:58:05.529Z,49.95
2023-05-19T12:00:57.320Z,45.65
2023-05-19T12:03:33.876Z,46.68
2023-05-19T12:06:03.765Z,46.66
2023-05-19T12:08:30.996Z,49.48
2023-05-19T12:10:58.542Z,47.47
2023-05-19T12:13:25.302Z,48.09
2023-05-19T12:15:54.116Z,46.16
2023-05-19T12:18:21.569Z,47.52
2023-05-19T12:20:48.954Z,47.41
2023-05-19T12:23:16.693Z,46.67
2023-05-19T12:25:43.735Z,46.07
2023-05-19T12:28:10.726Z,45.71
2023-05-19T12:30:38.119Z,48.25
2023-05-19T12:33:05.561Z,46.51
2023-05-19T12:35:38.818Z,47.32
2023-05-19T12:38:07.250Z,45.10
2023-05-19T12:40:38.892Z,49.61
2023-05-19T12:43:06.987Z,45.57
2023-05-19T12:45:38.541Z,43.26
2023-05-19T12:48:11.784Z,43.82
2023-05-19T12:50:40.587Z,40.91
2023-05-19T12:53:14.908Z,40.99
2023-05-19T12:55:46.916Z,42.17
2023-05-19T12:58:19.114Z,42.76
2023-05-19T13:00:48.849Z,44.25
2023-05-19T13:03:17.046Z,44.83
2023-05-19T13:05:50.760Z,45.33
2023-05-19T13:08:20.480Z,45.40
2023-05-19T13:10:51.598Z,45.54
2023-05-19T13:13:19.827Z,48.00
2023-05-19T13:15:53.882Z,48.07
2023-05-19T13:18:22.228Z,48.45
2023-05-19T13:20:53.845Z,46.16
2023-05-19T13:23:28.014Z,48.42
2023-05-19T13:25:55.658Z,45.97
2023-05-19T13:28:23.082Z,48.73
2023-05-19T13:30:51.937Z,49.61
2023-05-19T13:33:19.375Z,50.20
2023-05-19T13:35:46.167Z,50.36
2023-05-19T13:38:13.739Z,51.51
2023-05-19T13:40:41.195Z,49.80
2023-05-19T13:43:11.873Z,49.80
2023-05-19T13:45:43.147Z,50.93
2023-05-19T13:48:12.365Z,53.48
2023-05-19T13:50:39.517Z,57.27
2023-05-19T13:53:07.073Z,61.64
2023-05-19T13:55:34.113Z,62.96
2023-05-19T13:58:01.346Z,66.62
2023-05-19T14:00:32.910Z,66.72
2023-05-19T14:03:06.977Z,70.57
2023-05-19T14:05:37.964Z,75.48
2023-05-19T14:08:10.684Z,81.66
2023-05-19T14:10:49.464Z,88.73
2023-05-19T14:13:32.679Z,96.08
2023-05-19T14:16:06.903Z,100.00
2023-05-19T14:18:44.541Z,100.00
2023-05-19T14:21:17.123Z,100.00
2023-05-19T14:24:00.485Z,100.00
2023-05-19T14:26:34.113Z,100.00
2023-05-19T14:29:14.811Z,100.00
2023-05-19T14:31:42.917Z,100.00
2023-05-19T14:34:10.460Z,100.00
2023-05-19T14:36:41.323Z,100.00
2023-05-19T14:39:15.312Z,100.00
2023-05-19T14:41:46.375Z,100.00
2023-05-19T14:44:14.348Z,100.00
2023-05-19T14:46:41.933Z,100.00
2023-05-19T14:49:09.666Z,100.00
2023-05-19T14:51:37.621Z,100.00
2023-05-19T14:54:08.218Z,100.00
2023-05-19T14:56:45.040Z,100.00
2023-05-19T14:59:12.261Z,100.00
2023-05-19T15:01:39.936Z,100.00
2023-05-19T15:04:07.305Z,100.00
2023-05-19T15:06:34.934Z,100.00
2023-05-19T15:09:14.639Z,100.00
2023-05-19T15:11:42.176Z,100.00
2023-05-19T15:14:10.258Z,100.00
2023-05-19T15:16:46.940Z,100.00
2023-05-19T15:19:49.280Z,100.00
2023-05-19T15:22:21.131Z,100.00
2023-05-19T15:24:51.965Z,100.00
2023-05-19T15:27:32.281Z,100.00
2023-05-19T15:30:00.559Z,100.00
2023-05-19T15:32:30.738Z,100.00
2023-05-19T15:34:58.076Z,100.00
2023-05-19T15:37:25.424Z,100.00
2023-05-19T15:39:55.830Z,100.00
2023-05-19T15:42:26.286Z,100.00
2023-05-19T15:44:53.586Z,100.00
2023-05-19T15:47:20.599Z,100.00
2023-05-19T15:49:47.921Z,100.00
2023-05-19T15:52:14.675Z,100.00
2023-05-19T15:54:42.153Z,100.00
2023-05-19T15:57:08.943Z,100.00
2023-05-19T15:59:35.944Z,100.00
2023-05-19T16:02:03.037Z,100.00
2023-05-19T16:04:30.250Z,100.00
2023-05-19T16:06:57.398Z,100.00
2023-05-19T16:09:24.613Z,100.00
2023-05-19T16:11:51.633Z,100.00
2023-05-19T16:14:18.490Z,100.00
2023-05-19T16:16:45.883Z,100.00
2023-05-19T16:19:13.320Z,100.00
2023-05-19T16:21:40.464Z,100.00
2023-05-19T16:24:07.589Z,100.00
2023-05-19T16:26:34.916Z,100.00
2023-05-19T16:29:02.112Z,100.00
2023-05-19T16:31:41.230Z,100.00
2023-05-19T16:34:08.591Z,100.00
2023-05-19T16:36:35.341Z,100.00
2023-05-19T16:39:02.362Z,100.00
2023-05-19T16:41:29.081Z,100.00
2023-05-19T16:43:56.132Z,100.00
2023-05-19T16:46:23.403Z,100.00
2023-05-19T16:48:51.227Z,100.00
2023-05-19T16:51:18.013Z,100.00
2023-05-19T16:53:48.455Z,100.00
2023-05-19T16:56:18.936Z,100.00
2023-05-19T16:58:49.606Z,100.00
2023-05-19T17:01:20.482Z,100.00
2023-05-19T17:03:47.444Z,100.00
2023-05-19T17:06:14.463Z,100.00
2023-05-19T17:08:44.134Z,100.00
2023-05-19T17:11:11.631Z,100.00
2023-05-19T17:13:38.810Z,100.00
2023-05-19T17:16:06.128Z,100.00
2023-05-19T17:18:32.978Z,100.00
2023-05-19T17:21:10.971Z,100.00
2023-05-19T17:23:38.484Z,100.00
2023-05-19T17:26:05.567Z,100.00
2023-05-19T17:28:32.691Z,100.00
2023-05-19T17:30:59.776Z,100.00
2023-05-19T17:33:29.069Z,100.00
2023-05-19T17:35:56.298Z,100.00
2023-05-19T17:38:26.442Z,100.00
2023-05-19T17:41:02.583Z,100.00
2023-05-19T17:43:29.857Z,100.00
2023-05-19T17:45:58.794Z,100.00
2023-05-19T17:48:27.368Z,100.00
2023-05-19T17:50:54.980Z,100.00
2023-05-19T17:53:23.103Z,100.00
2023-05-19T17:55:58.737Z,100.00
2023-05-19T17:58:26.625Z,100.00
2023-05-19T18:00:57.218Z,100.00
2023-05-19T18:03:25.518Z,100.00
2023-05-19T18:06:03.928Z,100.00
2023-05-19T18:08:32.476Z,100.00
2023-05-19T18:11:00.815Z,100.00
2023-05-19T18:13:44.433Z,100.00
2023-05-19T18:16:12.642Z,100.00
2023-05-19T18:18:43.862Z,100.00
2023-05-19T18:21:20.940Z,100.00
2023-05-19T18:23:48.358Z,100.00
2023-05-19T18:26:16.451Z,100.00
2023-05-19T18:28:43.885Z,100.00
2023-05-19T18:31:16.126Z,100.00
2023-05-19T18:33:49.204Z,100.00
2023-05-19T18:36:19.651Z,100.00
2023-05-19T18:38:48.507Z,100.00
2023-05-19T18:41:16.099Z,100.00
2023-05-19T18:43:56.421Z,100.00
2023-05-19T18:46:23.794Z,100.00
2023-05-19T18:48:56.725Z,100.00
2023-05-19T18:51:24.152Z,100.00
2023-05-19T18:53:51.760Z,100.00
2023-05-19T18:56:31.939Z,100.00
2023-05-19T18:59:00.463Z,100.00
2023-05-19T19:01:28.598Z,100.00
2023-05-19T19:03:56.158Z,100.00
2023-05-19T19:06:26.491Z,100.00
2023-05-19T19:08:54.310Z,100.00
2023-05-19T19:11:24.674Z,100.00
2023-05-19T19:13:54.962Z,100.00
2023-05-19T19:16:22.865Z,100.00
2023-05-19T19:18:53.086Z,100.00
2023-05-19T19:21:22.625Z,100.00
2023-05-19T19:24:14.238Z,100.00
2023-05-19T19:26:45.190Z,100.00
2023-05-19T19:29:14.382Z,100.00
2023-05-19T19:31:42.157Z,100.00
2023-05-19T19:34:12.777Z,100.00
2023-05-19T19:36:48.304Z,100.00
2023-05-19T19:39:18.575Z,100.00
2023-05-19T19:41:46.517Z,100.00
2023-05-19T19:44:14.352Z,100.00
2023-05-19T19:46:41.914Z,100.00
2023-05-19T19:49:09.174Z,100.00
2023-05-19T19:51:37.142Z,100.00
2023-05-19T19:54:05.477Z,100.00
2023-05-19T19:56:35.806Z,100.00
2023-05-19T19:59:03.655Z,100.00
2023-05-19T20:01:35.502Z,100.00
2023-05-19T20:04:03.201Z,100.00
2023-05-19T20:06:37.660Z,100.00
2023-05-19T20:09:05.464Z,100.00
2023-05-19T20:11:32.786Z,100.00
2023-05-19T20:14:00.442Z,100.00
2023-05-19T20:16:28.824Z,100.00
2023-05-19T20:18:56.257Z,100.00
2023-05-19T20:21:23.694Z,100.00
2023-05-19T20:23:51.949Z,100.00
2023-05-19T20:26:23.064Z,100.00
2023-05-19T20:28:50.346Z,100.00
2023-05-19T20:31:22.124Z,100.00
2023-05-19T20:33:50.131Z,100.00
2023-05-19T20:36:17.516Z,100.00
2023-05-19T20:38:45.330Z,100.00
2023-05-19T20:41:15.841Z,100.00
2023-05-19T20:43:44.741Z,100.00
2023-05-19T20:46:12.436Z,100.00
2023-05-19T20:48:43.198Z,100.00
2023-05-19T20:51:11.164Z,100.00
2023-05-19T20:53:41.028Z,100.00
2023-05-19T20:56:11.233Z,100.00
2023-05-19T20:58:38.963Z,100.00
2023-05-19T21:01:06.864Z,100.00
2023-05-19T21:03:34.897Z,100.00
2023-05-19T21:06:05.640Z,100.00
2023-05-19T21:08:32.711Z,100.00
2023-05-19T21:10:59.790Z,100.00
2023-05-19T21:13:26.978Z,100.00
2023-05-19T21:15:59.852Z,100.00
2023-05-19T21:18:27.108Z,100.00
2023-05-19T21:20:54.359Z,100.00
2023-05-19T21:23:21.966Z,100.00
2023-05-19T21:25:50.798Z,100.00
2023-05-19T21:28:18.013Z,100.00
2023-05-19T21:30:49.686Z,100.00
2023-05-19T21:33:21.642Z,100.00
2023-05-19T21:35:52.539Z,100.00
2023-05-19T21:38:23.801Z,100.00
2023-05-19T21:40:54.718Z,100.00
2023-05-19T21:43:22.930Z,100.00
2023-05-19T21:45:50.322Z,100.00
2023-05-19T21:48:24.226Z,100.00
2023-05-19T21:50:56.330Z,100.00
2023-05-19T21:53:24.259Z,100.00
2023-05-19T21:55:54.701Z,100.00
2023-05-19T21:58:31.058Z,100.00
2023-05-19T22:00:58.562Z,100.00
2023-05-19T22:03:26.618Z,100.00
2023-05-19T22:05:55.702Z,100.00
2023-05-19T22:08:22.792Z,100.00
2023-05-19T22:10:53.546Z,100.00
2023-05-19T22:13:21.017Z,100.00
2023-05-19T22:15:48.352Z,100.00
2023-05-19T22:18:16.087Z,100.00
2023-05-19T22:20:43.424Z,100.00
2023-05-19T22:23:10.967Z,100.00
2023-05-19T22:25:38.617Z,100.00
2023-05-19T22:28:08.081Z,100.00
2023-05-19T22:30:41.115Z,100.00
2023-05-19T22:33:12.459Z,100.00
2023-05-19T22:35:40.304Z,100.00
2023-05-19T22:38:10.295Z,100.00
2023-05-19T22:40:38.211Z,100.00
2023-05-19T22:43:05.860Z,100.00
2023-05-19T22:45:34.600Z,100.00
2023-05-19T22:48:02.319Z,100.00
2023-05-19T22:50:29.693Z,100.00
2023-05-19T22:52:57.160Z,100.00
2023-05-19T22:55:27.103Z,100.00
2023-05-19T22:57:54.184Z,100.00
2023-05-19T23:00:21.406Z,100.00
2023-05-19T23:02:49.072Z,100.00
2023-05-19T23:05:19.673Z,100.00
2023-05-19T23:07:47.472Z,100.00
2023-05-19T23:10:15.253Z,100.00
2023-05-19T23:12:42.984Z,100.00
2023-05-19T23:15:11.993Z,100.00
2023-05-19T23:17:42.310Z,100.00
2023-05-19T23:20:11.055Z,100.00
2023-05-19T23:22:41.415Z,100.00
2023-05-19T23:25:09.223Z,100.00
2023-05-19T23:27:39.812Z,100.00
2023-05-19T23:30:09.566Z,100.00
2023-05-19T23:32:37.212Z,100.00
2023-05-19T23:35:20.330Z,100.00
2023-05-19T23:37:47.989Z,100.00
2023-05-19T23:40:19.048Z,100.00
2023-05-19T23:42:46.798Z,100.00
2023-05-19T23:45:15.368Z,100.00
2023-05-19T23:47:42.784Z,100.00
2023-05-19T23:50:10.480Z,100.00
2023-05-19T23:52:37.697Z,100.00
2023-05-19T23:55:05.521Z,100.00
2023-05-19T23:57:32.801Z,100.00
